06D weather

Rolla Municipal Airport
Rolla, North Dakota, United States

Public forecast

Using degrees Fahrenheit for public forecast. Weather courtesy of forecast.io.

METAR (pilot weather report)

Retrieved 2019/05/24 05:15 UTC (0 seconds ago):

K06D 240515Z AUTO 17004KT 10SM CLR 07/01 A3006 RMK AO2

TAF (pilot weather forecast)

Forecast is more than 12 hours old.

Closest forecast is Devils Lake Regional Airport, 54.2 nm (100.4 km) SSE. Retrieved 2019/05/23 00:42 UTC (1 day ago):

TAF KDVL 232339Z 2400/2424 09012G20KT P6SM SCT060 FM240500 13006KT P6SM BKN250 FM241200 11010KT P6SM -RA OVC025 FM241500 11012KT 5SM -RA OVC015 FM242200 13010KT P6SM BKN015